createdAt,value
2023-05-22T00:00:35.488Z,5.15
2023-05-22T00:01:37.969Z,4.80
2023-05-22T00:02:43.166Z,5.15
2023-05-22T00:03:46.469Z,4.47
2023-05-22T00:04:48.955Z,5.07
2023-05-22T00:05:54.575Z,5.38
2023-05-22T00:06:57.014Z,5.03
2023-05-22T00:08:00.202Z,4.43
2023-05-22T00:09:02.673Z,4.55
2023-05-22T00:10:07.007Z,4.28
2023-05-22T00:11:12.006Z,4.47
2023-05-22T00:12:14.358Z,4.43
2023-05-22T00:13:16.795Z,3.75
2023-05-22T00:14:19.310Z,4.18
2023-05-22T00:15:22.198Z,4.55
2023-05-22T00:16:25.303Z,4.53
2023-05-22T00:17:30.681Z,4.65
2023-05-22T00:18:33.127Z,4.60
2023-05-22T00:19:35.762Z,4.40
2023-05-22T00:20:39.440Z,4.40
2023-05-22T00:21:43.079Z,4.22
2023-05-22T00:22:45.655Z,4.15
2023-05-22T00:23:47.986Z,4.90
2023-05-22T00:24:50.521Z,4.30
2023-05-22T00:25:53.004Z,4.03
2023-05-22T00:26:55.351Z,4.80
2023-05-22T00:27:58.186Z,5.10
2023-05-22T00:29:01.629Z,4.38
2023-05-22T00:30:05.979Z,4.35
2023-05-22T00:31:09.025Z,4.00
2023-05-22T00:32:11.684Z,4.10
2023-05-22T00:33:14.096Z,4.47
2023-05-22T00:34:16.468Z,4.50
2023-05-22T00:35:19.414Z,4.50
2023-05-22T00:36:22.271Z,4.03
2023-05-22T00:37:25.570Z,4.05
2023-05-22T00:38:32.869Z,4.45
2023-05-22T00:39:35.403Z,4.35
2023-05-22T00:40:38.111Z,3.50
2023-05-22T00:41:41.260Z,4.10
2023-05-22T00:42:47.003Z,4.53
2023-05-22T00:43:50.976Z,4.40
2023-05-22T00:44:53.496Z,3.88
2023-05-22T00:45:58.504Z,4.38
2023-05-22T00:47:02.271Z,4.53
2023-05-22T00:48:04.895Z,4.03
2023-05-22T00:49:07.365Z,4.30
2023-05-22T00:50:11.784Z,4.40
2023-05-22T00:51:15.355Z,4.82
2023-05-22T00:52:17.764Z,4.32
2023-05-22T00:53:22.215Z,4.00
2023-05-22T00:54:25.304Z,3.55
2023-05-22T00:55:27.727Z,4.25
2023-05-22T00:56:30.527Z,4.03
2023-05-22T00:57:33.939Z,3.80
2023-05-22T00:58:37.570Z,3.53
2023-05-22T00:59:40.219Z,4.03
2023-05-22T01:00:43.267Z,4.55
2023-05-22T01:01:46.427Z,3.88
2023-05-22T01:02:49.455Z,4.47
2023-05-22T01:03:53.921Z,4.10
2023-05-22T01:04:57.871Z,4.15
2023-05-22T01:06:01.147Z,4.30
2023-05-22T01:07:06.090Z,4.47
2023-05-22T01:08:09.595Z,4.30
2023-05-22T01:09:14.759Z,4.70
2023-05-22T01:10:17.568Z,4.00
2023-05-22T01:11:31.542Z,3.70
2023-05-22T01:13:02.168Z,3.72
2023-05-22T01:14:10.883Z,4.05
2023-05-22T01:15:34.799Z,3.88
2023-05-22T01:16:46.468Z,3.50
2023-05-22T01:18:19.593Z,3.65
2023-05-22T01:19:53.879Z,4.00
2023-05-22T01:21:00.014Z,3.70
2023-05-22T01:22:17.469Z,3.53
2023-05-22T01:23:21.349Z,4.28
2023-05-22T01:24:44.685Z,4.40
2023-05-22T01:26:03.545Z,3.60
2023-05-22T01:27:25.743Z,3.80
2023-05-22T01:28:40.994Z,3.95
2023-05-22T01:30:18.511Z,3.78
2023-05-22T01:31:26.257Z,3.70
2023-05-22T01:32:31.135Z,4.40
2023-05-22T01:33:58.862Z,4.10
2023-05-22T01:35:03.589Z,3.70
2023-05-22T01:36:08.968Z,3.55
2023-05-22T01:37:13.856Z,3.92
2023-05-22T01:38:17.169Z,4.20
2023-05-22T01:39:20.431Z,3.85
2023-05-22T01:40:23.778Z,3.78
2023-05-22T01:41:27.584Z,3.45
2023-05-22T01:42:30.117Z,3.50
2023-05-22T01:43:32.558Z,4.28
2023-05-22T01:44:35.924Z,3.70
2023-05-22T01:45:38.694Z,4.20
2023-05-22T01:46:41.977Z,3.97
2023-05-22T01:47:44.647Z,4.30
2023-05-22T01:48:47.065Z,3.40
2023-05-22T01:49:50.137Z,3.83
2023-05-22T01:50:54.807Z,3.47
2023-05-22T01:52:12.098Z,3.75
2023-05-22T01:53:24.066Z,3.28
2023-05-22T01:54:32.880Z,3.25
2023-05-22T01:55:47.455Z,3.33
2023-05-22T01:56:59.102Z,3.67
2023-05-22T01:58:35.758Z,3.78
2023-05-22T01:59:54.451Z,4.10
2023-05-22T02:01:00.834Z,3.97
2023-05-22T02:02:07.391Z,3.80
2023-05-22T02:03:17.058Z,3.88
2023-05-22T02:04:22.605Z,3.50
2023-05-22T02:05:27.816Z,3.60
2023-05-22T02:06:33.089Z,3.42
2023-05-22T02:07:39.412Z,3.80
2023-05-22T02:08:42.903Z,3.95
2023-05-22T02:09:47.259Z,3.38
2023-05-22T02:10:52.181Z,3.40
2023-05-22T02:12:00.632Z,3.40
2023-05-22T02:13:04.733Z,3.35
2023-05-22T02:14:12.038Z,4.18
2023-05-22T02:15:15.321Z,3.33
2023-05-22T02:16:19.233Z,3.35
2023-05-22T02:17:22.121Z,3.70
2023-05-22T02:18:31.635Z,3.85
2023-05-22T02:19:36.059Z,3.67
2023-05-22T02:20:39.316Z,3.88
2023-05-22T02:21:42.124Z,3.28
2023-05-22T02:22:47.385Z,3.38
2023-05-22T02:23:50.126Z,3.75
2023-05-22T02:24:53.845Z,3.75
2023-05-22T02:25:56.293Z,3.47
2023-05-22T02:26:58.703Z,3.35
2023-05-22T02:28:01.263Z,3.20
2023-05-22T02:29:04.038Z,3.33
2023-05-22T02:30:08.252Z,3.63
2023-05-22T02:31:10.732Z,3.80
2023-05-22T02:32:15.648Z,4.00
2023-05-22T02:33:18.565Z,3.67
2023-05-22T02:34:20.987Z,3.65
2023-05-22T02:35:23.458Z,3.28
2023-05-22T02:36:27.572Z,3.17
2023-05-22T02:37:30.161Z,3.33
2023-05-22T02:38:32.682Z,3.63
2023-05-22T02:39:36.378Z,3.67
2023-05-22T02:40:39.023Z,3.75
2023-05-22T02:41:42.096Z,3.40
2023-05-22T02:42:44.450Z,3.25
2023-05-22T02:43:47.544Z,3.25
2023-05-22T02:44:49.989Z,3.55
2023-05-22T02:45:52.486Z,3.60
2023-05-22T02:46:55.035Z,3.67
2023-05-22T02:47:58.318Z,3.40
2023-05-22T02:49:01.066Z,3.40
2023-05-22T02:50:06.849Z,3.72
2023-05-22T02:51:10.273Z,3.75
2023-05-22T02:52:12.867Z,3.72
2023-05-22T02:53:17.195Z,3.40
2023-05-22T02:54:20.012Z,3.28
2023-05-22T02:55:22.980Z,3.53
2023-05-22T02:56:27.842Z,3.53
2023-05-22T02:57:30.958Z,3.65
2023-05-22T02:58:34.906Z,3.17
2023-05-22T02:59:37.345Z,4.15
2023-05-22T03:00:40.337Z,3.55
2023-05-22T03:01:44.399Z,3.50
2023-05-22T03:02:47.278Z,3.30
2023-05-22T03:03:51.241Z,3.05
2023-05-22T03:04:53.814Z,3.58
2023-05-22T03:05:58.501Z,3.08
2023-05-22T03:07:01.673Z,3.17
2023-05-22T03:08:04.172Z,3.17
2023-05-22T03:09:06.709Z,3.75
2023-05-22T03:10:09.249Z,4.03
2023-05-22T03:11:11.980Z,3.08
2023-05-22T03:12:14.372Z,3.38
2023-05-22T03:13:17.016Z,3.65
2023-05-22T03:14:19.460Z,3.65
2023-05-22T03:15:21.869Z,3.70
2023-05-22T03:16:26.783Z,3.47
2023-05-22T03:17:30.027Z,3.20
2023-05-22T03:18:32.494Z,3.10
2023-05-22T03:19:34.868Z,3.70
2023-05-22T03:20:37.467Z,3.55
2023-05-22T03:21:41.687Z,3.17
2023-05-22T03:22:45.772Z,3.05
2023-05-22T03:23:49.290Z,3.75
2023-05-22T03:24:52.307Z,3.45
2023-05-22T03:25:55.211Z,3.50
2023-05-22T03:27:01.369Z,3.60
2023-05-22T03:28:14.879Z,5.68
2023-05-22T03:29:18.006Z,7.18
2023-05-22T03:30:20.589Z,6.00
2023-05-22T03:31:36.681Z,4.90
2023-05-22T03:32:42.503Z,4.20
2023-05-22T03:33:44.938Z,4.30
2023-05-22T03:34:47.881Z,4.10
2023-05-22T03:35:50.797Z,3.92
2023-05-22T03:36:54.111Z,4.03
2023-05-22T03:37:56.710Z,3.70
2023-05-22T03:38:59.411Z,3.33
2023-05-22T03:40:04.150Z,3.42
2023-05-22T03:41:07.776Z,3.35
2023-05-22T03:42:11.007Z,3.55
2023-05-22T03:43:13.403Z,3.53
2023-05-22T03:44:16.324Z,3.45
2023-05-22T03:45:19.281Z,3.63
2023-05-22T03:46:23.324Z,3.22
2023-05-22T03:47:25.922Z,3.10
2023-05-22T03:48:28.371Z,3.30
2023-05-22T03:49:31.006Z,2.90
2023-05-22T03:52:50.656Z,3.60
2023-05-22T03:53:53.113Z,3.05
2023-05-22T03:54:55.866Z,4.28
2023-05-22T03:55:58.953Z,3.75
2023-05-22T03:57:01.459Z,3.60
2023-05-22T03:58:03.906Z,3.97
2023-05-22T03:59:06.821Z,4.07
2023-05-22T04:39:40.317Z,3.92
2023-05-22T04:40:44.552Z,4.00
2023-05-22T04:41:47.783Z,3.97
2023-05-22T04:42:50.289Z,4.60
2023-05-22T04:43:54.558Z,13.23
2023-05-22T04:44:58.092Z,8.73
2023-05-22T04:46:00.626Z,6.25
2023-05-22T04:47:05.398Z,14.82
2023-05-22T04:48:11.955Z,9.25
2023-05-22T04:49:14.558Z,7.28
2023-05-22T04:50:16.974Z,5.95
2023-05-22T05:21:39.717Z,3.33
2023-05-22T05:22:44.025Z,3.28
2023-05-22T05:23:46.556Z,3.40
2023-05-22T05:24:49.228Z,3.45
2023-05-22T05:25:52.317Z,3.42
2023-05-22T05:26:55.721Z,3.33
2023-05-22T05:27:58.153Z,3.58
2023-05-22T05:29:00.989Z,3.70
2023-05-22T05:30:11.763Z,3.35
2023-05-22T05:31:29.000Z,4.20
2023-05-22T05:32:51.828Z,3.63
2023-05-22T05:34:00.823Z,3.20
2023-05-22T05:35:07.867Z,3.97
2023-05-22T05:36:27.060Z,3.38
2023-05-22T05:37:31.015Z,4.38
2023-05-22T05:38:35.884Z,3.58
2023-05-22T05:39:38.280Z,3.58
2023-05-22T05:40:43.771Z,3.60
2023-05-22T05:41:47.132Z,4.07
2023-05-22T05:42:49.809Z,3.63
2023-05-22T05:43:57.345Z,4.30
2023-05-22T05:45:01.239Z,4.10
2023-05-22T05:46:06.438Z,4.35
2023-05-22T05:47:09.211Z,13.73
2023-05-22T05:48:12.591Z,95.80
2023-05-22T05:49:20.314Z,90.43
2023-05-22T05:50:23.726Z,87.07
2023-05-22T05:51:26.598Z,66.78
2023-05-22T05:52:32.785Z,48.38
2023-05-22T05:53:37.733Z,39.38
2023-05-22T05:54:46.735Z,25.98
2023-05-22T05:55:51.633Z,22.20
2023-05-22T05:56:54.553Z,17.52
2023-05-22T05:57:57.014Z,14.93
2023-05-22T05:59:22.223Z,11.38
2023-05-22T06:00:42.895Z,11.23
2023-05-22T06:01:47.098Z,10.65
2023-05-22T06:02:55.889Z,10.73
2023-05-22T06:04:08.999Z,9.55
2023-05-22T06:05:15.334Z,8.80
2023-05-22T06:06:18.242Z,8.50
2023-05-22T06:07:40.040Z,8.18
2023-05-22T06:08:44.438Z,7.82
2023-05-22T06:09:46.938Z,7.68
2023-05-22T06:10:57.433Z,6.10
2023-05-22T06:12:13.164Z,6.68
2023-05-22T06:13:19.039Z,6.18
2023-05-22T06:14:21.566Z,5.97
2023-05-22T06:15:24.019Z,6.88
2023-05-22T06:16:26.643Z,6.50
2023-05-22T06:17:29.152Z,6.00
2023-05-22T06:18:31.636Z,6.25
2023-05-22T06:19:34.176Z,7.20
2023-05-22T06:20:36.920Z,7.65
2023-05-22T06:21:39.507Z,10.25
2023-05-22T06:22:41.930Z,9.30
2023-05-22T06:23:44.881Z,9.63
2023-05-22T06:24:47.322Z,8.48
2023-05-22T06:25:54.547Z,7.75
2023-05-22T06:26:57.161Z,6.80
2023-05-22T06:28:00.819Z,6.40
2023-05-22T06:29:03.414Z,6.38
2023-05-22T06:30:08.766Z,7.57
2023-05-22T06:31:14.459Z,6.45
2023-05-22T06:32:20.212Z,5.80
2023-05-22T06:33:24.410Z,6.25
2023-05-22T06:34:27.933Z,6.57
2023-05-22T06:35:31.723Z,5.38
2023-05-22T06:36:34.729Z,6.13
2023-05-22T06:37:38.489Z,6.70
2023-05-22T06:38:41.540Z,5.35
2023-05-22T06:39:54.141Z,6.00
2023-05-22T06:41:15.632Z,5.63
2023-05-22T06:42:18.095Z,6.20
2023-05-22T06:43:43.842Z,6.50
2023-05-22T06:44:49.244Z,5.63
2023-05-22T06:45:51.660Z,5.72
2023-05-22T06:46:57.409Z,4.60
2023-05-22T06:48:01.173Z,5.00
2023-05-22T06:49:04.125Z,4.57
2023-05-22T06:50:22.684Z,5.03
2023-05-22T06:51:26.358Z,6.00
2023-05-22T06:52:39.020Z,16.73
2023-05-22T06:53:42.701Z,29.80
2023-05-22T06:54:52.459Z,12.23
2023-05-22T06:55:54.981Z,11.10
2023-05-22T06:57:07.338Z,9.77
2023-05-22T06:58:09.795Z,9.07
2023-05-22T06:59:12.354Z,8.23
2023-05-22T07:00:37.835Z,7.82
2023-05-22T07:01:46.996Z,7.90
2023-05-22T07:02:54.705Z,7.00
2023-05-22T07:04:05.128Z,6.22
2023-05-22T07:05:27.985Z,5.53
2023-05-22T07:06:39.382Z,5.72
2023-05-22T07:07:43.414Z,5.80
2023-05-22T07:08:45.711Z,6.13
2023-05-22T07:09:48.156Z,6.13
2023-05-22T07:10:51.651Z,6.97
2023-05-22T07:11:54.181Z,6.80
2023-05-22T07:12:56.804Z,4.82
2023-05-22T07:13:59.268Z,5.82
2023-05-22T07:15:01.821Z,6.03
2023-05-22T07:16:06.386Z,4.68
2023-05-22T07:17:10.020Z,4.57
2023-05-22T07:18:17.323Z,5.75
2023-05-22T07:19:21.385Z,5.45
2023-05-22T07:20:26.709Z,4.68
2023-05-22T07:21:40.471Z,5.40
2023-05-22T07:22:43.671Z,5.93
2023-05-22T07:23:46.201Z,5.95
2023-05-22T07:24:48.949Z,6.25
2023-05-22T07:25:53.335Z,5.85
2023-05-22T07:26:58.469Z,10.50
2023-05-22T07:28:04.016Z,8.05
2023-05-22T07:29:06.644Z,8.95
2023-05-22T07:30:10.205Z,10.88
2023-05-22T07:31:15.354Z,10.63
2023-05-22T07:32:17.777Z,11.52
2023-05-22T07:33:20.470Z,9.85
2023-05-22T07:34:23.267Z,8.13
2023-05-22T07:35:25.918Z,7.93
2023-05-22T07:36:28.577Z,7.70
2023-05-22T07:37:31.692Z,6.97
2023-05-22T07:38:34.834Z,7.72
2023-05-22T07:39:38.596Z,7.63
2023-05-22T07:40:41.904Z,6.72
2023-05-22T07:41:50.096Z,7.00
2023-05-22T07:42:53.544Z,5.70
2023-05-22T07:43:57.363Z,5.75
2023-05-22T07:45:05.267Z,6.18
2023-05-22T07:46:09.440Z,6.28
2023-05-22T07:47:26.005Z,6.22
2023-05-22T07:48:29.150Z,5.97
2023-05-22T07:49:31.619Z,5.72
2023-05-22T07:50:34.073Z,4.93
2023-05-22T07:51:36.703Z,5.63
2023-05-22T07:52:39.176Z,6.15
2023-05-22T07:53:42.292Z,6.13
2023-05-22T07:54:45.632Z,8.20
2023-05-22T07:55:49.000Z,6.47
2023-05-22T07:56:52.513Z,6.70
2023-05-22T07:57:56.863Z,7.03
2023-05-22T07:59:07.528Z,6.50
2023-05-22T08:00:13.646Z,5.95
2023-05-22T08:01:16.439Z,6.28
2023-05-22T08:02:19.026Z,6.00
2023-05-22T08:03:23.789Z,6.13
2023-05-22T08:04:27.479Z,6.20
2023-05-22T08:05:30.643Z,5.95
2023-05-22T08:06:34.985Z,5.40
2023-05-22T08:07:38.475Z,6.45
2023-05-22T08:08:41.467Z,6.28
2023-05-22T08:09:46.084Z,6.93
2023-05-22T08:11:03.045Z,6.53
2023-05-22T08:12:07.522Z,6.40
2023-05-22T08:13:10.490Z,6.40
2023-05-22T08:14:12.923Z,6.50
2023-05-22T08:15:15.494Z,5.32
2023-05-22T08:16:18.497Z,6.30
2023-05-22T08:17:20.952Z,6.68
2023-05-22T08:18:23.400Z,6.20
2023-05-22T08:19:25.882Z,6.57
2023-05-22T08:20:28.598Z,6.20
2023-05-22T08:21:34.440Z,6.15
2023-05-22T08:22:39.075Z,6.50
2023-05-22T08:23:41.480Z,5.60
2023-05-22T08:24:43.864Z,6.28
2023-05-22T08:25:46.266Z,6.97
2023-05-22T08:26:49.391Z,6.38
2023-05-22T08:27:52.078Z,5.93
2023-05-22T08:28:54.731Z,6.80
2023-05-22T08:29:57.390Z,6.53
2023-05-22T08:30:59.751Z,5.97
2023-05-22T08:32:02.451Z,5.78
2023-05-22T08:33:05.637Z,6.70
2023-05-22T08:34:10.479Z,7.28
2023-05-22T08:35:14.255Z,7.47
2023-05-22T08:36:16.856Z,7.18
2023-05-22T08:37:19.255Z,8.18
2023-05-22T08:38:21.914Z,7.35
2023-05-22T08:39:24.628Z,7.55
2023-05-22T08:40:37.117Z,7.28
2023-05-22T08:41:40.384Z,7.90
2023-05-22T08:42:43.478Z,8.00
2023-05-22T08:43:46.396Z,7.50
2023-05-22T08:44:49.876Z,7.70
2023-05-22T08:46:05.737Z,6.80
2023-05-22T08:47:14.003Z,6.40
2023-05-22T08:48:19.539Z,6.07
2023-05-22T08:49:24.451Z,7.10
2023-05-22T08:50:27.846Z,6.63
2023-05-22T08:51:34.243Z,6.35
2023-05-22T08:52:50.752Z,6.65
2023-05-22T08:53:55.748Z,5.93
2023-05-22T08:54:59.504Z,6.30
2023-05-22T08:56:04.315Z,6.75
2023-05-22T08:57:06.908Z,6.22
2023-05-22T08:58:11.195Z,5.68
2023-05-22T08:59:13.874Z,6.35
2023-05-22T09:00:20.135Z,6.47
2023-05-22T09:01:24.114Z,6.07
2023-05-22T09:02:27.146Z,6.07
2023-05-22T09:03:34.945Z,5.80
2023-05-22T09:04:37.487Z,5.97
2023-05-22T09:05:41.311Z,5.88
2023-05-22T09:06:46.710Z,6.90
2023-05-22T09:07:49.956Z,7.60
2023-05-22T09:08:53.363Z,7.72
2023-05-22T09:09:56.750Z,7.53
2023-05-22T09:10:59.834Z,7.57
2023-05-22T09:12:02.400Z,7.60
2023-05-22T09:13:05.486Z,6.97
2023-05-22T09:14:09.438Z,8.00
2023-05-22T09:15:12.268Z,6.60
2023-05-22T09:16:15.870Z,6.40
2023-05-22T09:17:21.456Z,7.10
2023-05-22T09:18:27.606Z,6.72
2023-05-22T09:19:30.411Z,6.88
2023-05-22T09:20:38.444Z,6.90
2023-05-22T09:21:42.235Z,7.55
2023-05-22T09:22:47.430Z,6.65
2023-05-22T09:23:50.967Z,7.40
2023-05-22T09:24:59.349Z,6.45
2023-05-22T09:26:03.660Z,7.07
2023-05-22T09:27:10.305Z,5.75
2023-05-22T09:28:13.336Z,5.95
2023-05-22T09:29:15.808Z,6.32
2023-05-22T09:30:19.779Z,5.43
2023-05-22T09:31:22.357Z,7.45
2023-05-22T09:32:25.016Z,6.30
2023-05-22T09:33:29.644Z,6.68
2023-05-22T09:34:32.856Z,6.10
2023-05-22T09:35:39.552Z,6.25
2023-05-22T09:36:42.523Z,5.63
2023-05-22T09:37:45.237Z,6.70
2023-05-22T09:38:48.339Z,7.65
2023-05-22T09:39:55.031Z,7.57
2023-05-22T09:40:57.524Z,6.90
2023-05-22T09:42:01.618Z,7.18
2023-05-22T09:43:10.945Z,8.00
2023-05-22T09:44:14.544Z,10.25
2023-05-22T09:45:21.108Z,8.88
2023-05-22T09:46:23.688Z,10.00
2023-05-22T09:47:26.444Z,8.45
2023-05-22T09:48:28.899Z,8.65
2023-05-22T09:49:31.349Z,7.68
2023-05-22T09:50:33.848Z,8.50
2023-05-22T09:51:40.141Z,9.23
2023-05-22T09:52:44.980Z,7.88
2023-05-22T09:53:49.307Z,8.77
2023-05-22T09:54:55.239Z,7.47
2023-05-22T09:56:00.158Z,6.63
2023-05-22T09:57:08.042Z,7.03
2023-05-22T09:58:18.545Z,7.32
2023-05-22T09:59:26.730Z,6.47
2023-05-22T10:00:29.409Z,7.30
2023-05-22T10:01:34.183Z,6.53
2023-05-22T10:02:38.177Z,6.78
2023-05-22T10:03:43.254Z,6.03
2023-05-22T10:04:50.265Z,6.15
2023-05-22T10:05:55.700Z,5.90
2023-05-22T10:06:59.994Z,6.57
2023-05-22T10:08:14.897Z,7.47
2023-05-22T10:09:24.057Z,6.45
2023-05-22T10:10:26.576Z,6.55
2023-05-22T10:11:31.756Z,5.75
2023-05-22T10:12:44.643Z,5.93
2023-05-22T10:13:48.109Z,5.50
2023-05-22T10:14:50.942Z,6.03
2023-05-22T10:15:55.161Z,6.47
2023-05-22T10:17:02.002Z,6.45
2023-05-22T10:18:05.042Z,5.78
2023-05-22T10:19:08.323Z,5.88
2023-05-22T10:20:12.153Z,5.90
2023-05-22T10:21:16.508Z,6.57
2023-05-22T10:22:22.908Z,6.43
2023-05-22T10:23:26.671Z,6.03
2023-05-22T10:24:30.024Z,6.50
2023-05-22T10:25:34.708Z,5.95
2023-05-22T10:26:38.632Z,6.45
2023-05-22T10:27:41.545Z,6.57
2023-05-22T10:28:51.478Z,5.78
2023-05-22T10:30:15.992Z,7.38
2023-05-22T10:31:45.915Z,6.30
2023-05-22T10:33:04.693Z,7.80
2023-05-22T10:34:12.849Z,7.22
2023-05-22T10:35:20.759Z,8.23
2023-05-22T10:36:47.656Z,8.07
2023-05-22T10:37:54.912Z,6.90
2023-05-22T10:38:57.624Z,6.80
2023-05-22T10:40:08.557Z,6.85
2023-05-22T10:41:11.516Z,6.93
2023-05-22T10:42:14.362Z,6.38
2023-05-22T10:43:17.421Z,6.90
2023-05-22T10:44:21.855Z,7.03
2023-05-22T10:45:27.092Z,7.47
2023-05-22T10:46:34.347Z,8.55
2023-05-22T10:47:39.144Z,9.68
2023-05-22T10:48:48.451Z,8.82
2023-05-22T10:50:06.628Z,8.38
2023-05-22T10:51:09.555Z,7.03
2023-05-22T10:52:14.575Z,9.00
2023-05-22T10:53:25.063Z,7.93
2023-05-22T10:54:44.286Z,8.43
2023-05-22T10:55:50.960Z,7.38
2023-05-22T10:57:17.152Z,7.20
2023-05-22T10:58:33.672Z,7.97
2023-05-22T10:59:36.175Z,7.07
2023-05-22T11:00:38.731Z,7.50
2023-05-22T11:01:43.978Z,6.05
2023-05-22T11:03:17.193Z,6.70
2023-05-22T11:04:25.711Z,7.00
2023-05-22T11:05:30.415Z,5.93
2023-05-22T11:06:47.111Z,7.35
2023-05-22T11:07:50.175Z,6.97
2023-05-22T11:08:56.261Z,7.13
2023-05-22T11:10:01.523Z,7.05
2023-05-22T11:11:12.521Z,6.28
2023-05-22T11:12:30.579Z,7.25
2023-05-22T11:13:36.690Z,6.43
2023-05-22T11:14:39.425Z,8.10
2023-05-22T11:15:45.853Z,8.43
2023-05-22T11:16:48.324Z,7.85
2023-05-22T11:17:51.881Z,8.25
2023-05-22T11:19:22.041Z,6.75
2023-05-22T11:20:26.217Z,7.03
2023-05-22T11:21:31.108Z,7.90
2023-05-22T11:22:38.937Z,7.32
2023-05-22T11:23:41.805Z,7.60
2023-05-22T11:24:44.675Z,6.85
2023-05-22T11:25:47.251Z,7.43
2023-05-22T11:27:07.001Z,6.80
2023-05-22T11:28:11.467Z,7.38
2023-05-22T11:29:14.972Z,6.88
2023-05-22T11:30:18.224Z,6.20
2023-05-22T11:31:23.239Z,7.82
2023-05-22T11:32:27.319Z,6.85
2023-05-22T11:33:30.591Z,7.13
2023-05-22T11:34:34.021Z,8.68
2023-05-22T11:35:38.504Z,8.40
2023-05-22T11:36:41.185Z,7.18
2023-05-22T11:37:44.278Z,7.40
2023-05-22T11:38:47.107Z,7.97
2023-05-22T11:39:57.517Z,7.05
2023-05-22T11:41:00.135Z,6.95
2023-05-22T11:42:04.597Z,8.18
2023-05-22T11:43:07.160Z,7.75
2023-05-22T11:44:09.688Z,7.22
2023-05-22T11:45:12.296Z,6.80
2023-05-22T11:46:15.178Z,7.82
2023-05-22T11:47:18.261Z,7.30
2023-05-22T11:48:21.157Z,7.50
2023-05-22T11:49:26.707Z,8.77
2023-05-22T11:50:40.816Z,8.30
2023-05-22T11:51:48.858Z,7.32
2023-05-22T11:52:53.963Z,7.32
2023-05-22T11:53:57.505Z,7.75
2023-05-22T11:55:00.584Z,7.57
2023-05-22T11:56:06.794Z,9.57
2023-05-22T11:57:10.085Z,9.40
2023-05-22T11:58:13.101Z,7.45
2023-05-22T11:59:16.376Z,6.90
2023-05-22T12:00:20.478Z,7.30
2023-05-22T12:01:23.004Z,7.32
2023-05-22T12:02:26.447Z,7.68
2023-05-22T12:03:30.763Z,7.50
2023-05-22T12:04:33.815Z,7.10
2023-05-22T12:05:36.415Z,7.72
2023-05-22T12:06:38.961Z,7.15
2023-05-22T12:07:42.196Z,7.82
2023-05-22T12:08:45.378Z,6.70
2023-05-22T12:09:47.862Z,6.75
2023-05-22T12:10:51.641Z,7.97
2023-05-22T12:12:00.246Z,6.97
2023-05-22T12:13:03.140Z,7.25
2023-05-22T12:14:06.070Z,7.03
2023-05-22T12:15:09.491Z,7.10
2023-05-22T12:16:20.045Z,7.20
2023-05-22T12:17:23.056Z,6.88
2023-05-22T12:18:25.747Z,7.10
2023-05-22T12:19:28.252Z,6.72
2023-05-22T12:20:31.274Z,7.47
2023-05-22T12:21:33.879Z,6.93
2023-05-22T12:22:41.966Z,7.07
2023-05-22T12:23:50.032Z,6.68
2023-05-22T12:24:53.125Z,7.30
2023-05-22T12:26:10.870Z,7.25
2023-05-22T12:27:14.445Z,7.82
2023-05-22T12:28:17.032Z,7.63
2023-05-22T12:29:23.423Z,7.85
2023-05-22T12:30:25.788Z,8.27
2023-05-22T12:31:28.334Z,7.43
2023-05-22T12:32:30.830Z,8.10
2023-05-22T12:33:34.044Z,8.63
2023-05-22T12:34:46.894Z,6.72
2023-05-22T12:35:52.141Z,7.38
2023-05-22T12:36:54.544Z,7.75
2023-05-22T12:37:58.068Z,7.78
2023-05-22T12:39:00.509Z,7.13
2023-05-22T12:40:04.987Z,7.78
2023-05-22T12:41:08.291Z,7.40
2023-05-22T12:42:10.723Z,7.90
2023-05-22T12:43:13.333Z,7.53
2023-05-22T12:44:16.444Z,7.15
2023-05-22T12:45:18.995Z,7.18
2023-05-22T12:46:21.534Z,6.75
2023-05-22T12:47:25.217Z,7.45
2023-05-22T12:48:27.934Z,7.32
2023-05-22T12:49:30.341Z,7.22
2023-05-22T12:50:32.940Z,6.38
2023-05-22T12:51:36.256Z,5.93
2023-05-22T12:52:38.675Z,6.63
2023-05-22T12:53:41.039Z,6.65
2023-05-22T12:54:43.526Z,7.15
2023-05-22T12:55:46.174Z,7.55
2023-05-22T12:56:48.705Z,7.03
2023-05-22T12:57:52.009Z,6.70
2023-05-22T12:58:54.441Z,7.00
2023-05-22T12:59:56.837Z,6.82
2023-05-22T13:01:00.037Z,7.32
2023-05-22T13:02:04.098Z,7.07
2023-05-22T13:03:08.031Z,7.18
2023-05-22T13:04:10.922Z,6.32
2023-05-22T13:05:14.030Z,6.72
2023-05-22T13:06:16.724Z,6.30
2023-05-22T13:07:19.141Z,6.57
2023-05-22T13:08:23.548Z,6.82
2023-05-22T13:09:26.134Z,6.65
2023-05-22T13:10:29.208Z,6.57
2023-05-22T13:11:31.746Z,6.63
2023-05-22T13:12:38.496Z,7.53
2023-05-22T13:13:42.668Z,6.72
2023-05-22T13:14:45.210Z,7.43
2023-05-22T13:15:47.955Z,7.25
2023-05-22T13:16:51.385Z,7.65
2023-05-22T13:17:54.386Z,7.85
2023-05-22T13:18:58.674Z,7.80
2023-05-22T13:20:01.191Z,7.90
2023-05-22T13:21:04.073Z,7.55
2023-05-22T13:22:07.633Z,7.80
2023-05-22T13:23:10.428Z,7.38
2023-05-22T13:24:12.874Z,7.47
2023-05-22T13:25:15.623Z,7.32
2023-05-22T13:26:18.919Z,7.57
2023-05-22T13:27:22.000Z,7.50
2023-05-22T13:28:24.857Z,7.57
2023-05-22T13:29:27.714Z,6.90
2023-05-22T13:30:30.976Z,7.45
2023-05-22T13:31:37.864Z,6.90
2023-05-22T13:32:41.567Z,7.10
2023-05-22T13:33:44.194Z,6.95
2023-05-22T13:34:46.743Z,6.75
2023-05-22T13:35:49.501Z,6.95
2023-05-22T13:36:52.015Z,6.90
2023-05-22T13:37:54.439Z,6.22
2023-05-22T13:38:57.205Z,6.95
2023-05-22T13:39:59.969Z,6.75
2023-05-22T13:41:02.565Z,7.03
2023-05-22T13:42:05.411Z,6.82
2023-05-22T13:43:08.272Z,7.10
2023-05-22T13:44:11.140Z,6.65
2023-05-22T13:45:13.672Z,6.38
2023-05-22T13:46:17.772Z,6.28
2023-05-22T13:47:22.886Z,6.40
2023-05-22T13:48:25.855Z,7.15
2023-05-22T13:49:28.299Z,6.45
2023-05-22T13:50:30.747Z,6.30
2023-05-22T13:51:33.203Z,6.45
2023-05-22T13:52:35.980Z,5.95
2023-05-22T13:53:38.960Z,5.78
2023-05-22T13:54:42.284Z,6.13
2023-05-22T13:55:44.985Z,6.10
2023-05-22T13:56:50.188Z,6.47
2023-05-22T13:57:52.539Z,6.03
2023-05-22T13:58:55.081Z,6.65
2023-05-22T13:59:57.614Z,6.22
2023-05-22T14:01:00.857Z,6.38
2023-05-22T14:02:04.173Z,6.82
2023-05-22T14:03:07.146Z,6.63
2023-05-22T14:04:09.691Z,6.97
2023-05-22T14:05:12.450Z,6.35
2023-05-22T14:06:15.241Z,6.82
2023-05-22T14:07:18.234Z,6.10
2023-05-22T14:08:20.798Z,6.93
2023-05-22T14:09:23.911Z,6.68
2023-05-22T14:10:26.939Z,6.35
2023-05-22T14:11:30.337Z,6.63
2023-05-22T14:12:33.347Z,6.80
2023-05-22T14:13:36.256Z,7.43
2023-05-22T14:14:38.766Z,7.03
2023-05-22T14:15:43.139Z,7.38
2023-05-22T14:16:45.816Z,7.55
2023-05-22T14:17:48.356Z,6.63
2023-05-22T14:18:51.070Z,6.32
2023-05-22T14:19:54.037Z,6.82
2023-05-22T14:20:56.392Z,6.32
2023-05-22T14:21:58.893Z,6.70
2023-05-22T14:23:01.944Z,6.57
2023-05-22T14:24:05.092Z,6.70
2023-05-22T14:25:08.588Z,6.65
2023-05-22T14:26:11.988Z,5.60
2023-05-22T14:27:16.201Z,7.10
2023-05-22T14:28:18.668Z,6.32
2023-05-22T14:29:21.560Z,6.22
2023-05-22T14:30:24.027Z,6.35
2023-05-22T14:31:29.557Z,6.47
2023-05-22T14:32:33.093Z,6.68
2023-05-22T14:33:35.955Z,6.75
2023-05-22T14:34:38.397Z,6.38
2023-05-22T14:35:41.178Z,6.28
2023-05-22T14:36:44.714Z,5.72
2023-05-22T14:37:47.192Z,6.38
2023-05-22T14:38:50.023Z,6.72
2023-05-22T14:39:52.568Z,6.18
2023-05-22T14:40:54.958Z,5.70
2023-05-22T14:41:57.428Z,6.45
2023-05-22T14:43:01.131Z,6.28
2023-05-22T14:44:03.705Z,6.93
2023-05-22T14:45:07.555Z,6.25
2023-05-22T14:46:10.939Z,5.93
2023-05-22T14:47:14.036Z,6.55
2023-05-22T14:48:16.481Z,6.30
2023-05-22T14:49:19.054Z,6.15
2023-05-22T14:50:22.104Z,6.72
2023-05-22T14:51:24.769Z,5.05
2023-05-22T14:52:27.276Z,6.03
2023-05-22T14:53:29.827Z,6.10
2023-05-22T14:54:33.665Z,6.47
2023-05-22T14:55:36.237Z,5.80
2023-05-22T14:56:38.899Z,5.70
2023-05-22T14:57:41.284Z,5.47
2023-05-22T14:58:43.705Z,6.25
2023-05-22T14:59:46.774Z,6.22
2023-05-22T15:00:50.750Z,6.35
2023-05-22T15:01:53.212Z,5.97
2023-05-22T15:02:55.938Z,5.78
2023-05-22T15:03:58.915Z,5.47
2023-05-22T15:05:01.339Z,5.75
2023-05-22T15:06:04.216Z,5.32
2023-05-22T15:07:06.852Z,5.60
2023-05-22T15:08:09.376Z,5.82
2023-05-22T15:09:11.733Z,5.40
2023-05-22T15:10:14.235Z,5.43
2023-05-22T15:11:16.676Z,5.97
2023-05-22T15:12:20.441Z,5.75
2023-05-22T15:13:24.323Z,5.70
2023-05-22T15:14:26.704Z,5.05
2023-05-22T15:15:29.171Z,5.50
2023-05-22T15:16:31.691Z,5.35
2023-05-22T15:17:34.278Z,5.70
2023-05-22T15:18:36.802Z,6.05
2023-05-22T15:19:43.655Z,5.40
2023-05-22T15:20:46.261Z,5.70
2023-05-22T15:21:48.773Z,5.78
2023-05-22T15:22:51.384Z,5.30
2023-05-22T15:23:53.847Z,5.80
2023-05-22T15:25:16.925Z,6.57
2023-05-22T15:26:19.433Z,6.78
2023-05-22T15:27:22.739Z,6.18
2023-05-22T15:28:25.218Z,6.03
2023-05-22T15:29:28.892Z,7.35
2023-05-22T15:30:35.965Z,7.05
2023-05-22T15:31:39.494Z,7.53
2023-05-22T15:32:42.148Z,6.60
2023-05-22T15:33:46.466Z,7.30
2023-05-22T15:34:48.884Z,7.85
2023-05-22T15:35:51.915Z,7.05
2023-05-22T15:36:54.741Z,6.78